sensor_id;sensor_type;location;lat;lon;timestamp;temperature;humidity
15048;DHT22;7621;52.350;13.308;2023-06-10T06:39:26;26.10;58.60
15048;DHT22;7621;52.350;13.308;2023-06-10T06:41:52;26.10;58.60
15048;DHT22;7621;52.350;13.308;2023-06-10T06:44:17;26.10;58.50
15048;DHT22;7621;52.350;13.308;2023-06-10T06:46:43;26.10;58.50
15048;DHT22;7621;52.350;13.308;2023-06-10T06:49:08;26.10;58.50
15048;DHT22;7621;52.350;13.308;2023-06-10T06:51:34;26.10;58.50
15048;DHT22;7621;52.350;13.308;2023-06-10T06:53:59;26.20;59.20
15048;DHT22;7621;52.350;13.308;2023-06-10T06:56:25;26.20;58.60
15048;DHT22;7621;52.350;13.308;2023-06-10T06:58:52;26.30;58.70
15048;DHT22;7621;52.350;13.308;2023-06-10T07:01:17;26.30;58.60
15048;DHT22;7621;52.350;13.308;2023-06-10T07:03:43;26.50;58.70
15048;DHT22;7621;52.350;13.308;2023-06-10T07:06:09;26.60;58.60
15048;DHT22;7621;52.350;13.308;2023-06-10T07:08:34;26.70;58.60
15048;DHT22;7621;52.350;13.308;2023-06-10T07:11:00;26.90;58.50
15048;DHT22;7621;52.350;13.308;2023-06-10T07:13:25;27.00;58.40
15048;DHT22;7621;52.350;13.308;2023-06-10T07:15:51;27.20;58.20
15048;DHT22;7621;52.350;13.308;2023-06-10T07:18:16;27.30;58.00
15048;DHT22;7621;52.350;13.308;2023-06-10T07:20:42;27.50;58.40
15048;DHT22;7621;52.350;13.308;2023-06-10T07:23:08;27.70;57.70
15048;DHT22;7621;52.350;13.308;2023-06-10T07:25:33;27.90;57.60
15048;DHT22;7621;52.350;13.308;2023-06-10T07:27:59;28.10;57.30
15048;DHT22;7621;52.350;13.308;2023-06-10T07:30:24;28.30;57.10
15048;DHT22;7621;52.350;13.308;2023-06-10T07:32:51;28.50;56.90
15048;DHT22;7621;52.350;13.308;2023-06-10T07:35:17;28.70;56.40
15048;DHT22;7621;52.350;13.308;2023-06-10T07:37:42;29.00;56.00
15048;DHT22;7621;52.350;13.308;2023-06-10T07:40:08;29.10;55.60
15048;DHT22;7621;52.350;13.308;2023-06-10T07:42:35;29.40;55.40
15048;DHT22;7621;52.350;13.308;2023-06-10T07:45:02;29.60;55.20
15048;DHT22;7621;52.350;13.308;2023-06-10T07:47:28;29.80;54.80
15048;DHT22;7621;52.350;13.308;2023-06-10T07:49:53;30.10;54.40
15048;DHT22;7621;52.350;13.308;2023-06-10T07:52:19;30.30;54.10
15048;DHT22;7621;52.350;13.308;2023-06-10T07:54:44;30.60;53.80
15048;DHT22;7621;52.350;13.308;2023-06-10T07:57:10;30.80;53.60
15048;DHT22;7621;52.350;13.308;2023-06-10T07:59:36;31.00;52.90
15048;DHT22;7621;52.350;13.308;2023-06-10T08:02:01;31.30;52.50
15048;DHT22;7621;52.350;13.308;2023-06-10T08:04:27;31.50;52.10
15048;DHT22;7621;52.350;13.308;2023-06-10T08:06:52;31.70;51.80
15048;DHT22;7621;52.350;13.308;2023-06-10T08:09:18;32.10;51.70
15048;DHT22;7621;52.350;13.308;2023-06-10T08:11:46;32.30;51.20
15048;DHT22;7621;52.350;13.308;2023-06-10T08:14:11;32.50;50.50
15048;DHT22;7621;52.350;13.308;2023-06-10T08:16:37;32.70;50.20
15048;DHT22;7621;52.350;13.308;2023-06-10T08:19:02;32.90;49.90
15048;DHT22;7621;52.350;13.308;2023-06-10T08:21:28;33.00;49.50
15048;DHT22;7621;52.350;13.308;2023-06-10T08:23:54;33.10;49.00
15048;DHT22;7621;52.350;13.308;2023-06-10T08:26:20;33.20;48.80
15048;DHT22;7621;52.350;13.308;2023-06-10T08:28:45;33.30;48.60
15048;DHT22;7621;52.350;13.308;2023-06-10T08:31:11;33.40;48.30
15048;DHT22;7621;52.350;13.308;2023-06-10T08:33:37;33.50;48.30
15048;DHT22;7621;52.350;13.308;2023-06-10T08:36:02;33.70;48.30
15048;DHT22;7621;52.350;13.308;2023-06-10T08:38:28;33.90;48.10
15048;DHT22;7621;52.350;13.308;2023-06-10T08:40:56;34.10;48.00
15048;DHT22;7621;52.350;13.308;2023-06-10T08:43:37;34.40;47.80
15048;DHT22;7621;52.350;13.308;2023-06-10T08:46:05;34.70;47.10
15048;DHT22;7621;52.350;13.308;2023-06-10T08:48:35;35.00;46.50
15048;DHT22;7621;52.350;13.308;2023-06-10T08:51:04;35.30;45.90
15048;DHT22;7621;52.350;13.308;2023-06-10T08:53:31;35.60;45.40
15048;DHT22;7621;52.350;13.308;2023-06-10T08:56:00;35.80;44.70
15048;DHT22;7621;52.350;13.308;2023-06-10T08:58:29;36.10;44.20
15048;DHT22;7621;52.350;13.308;2023-06-10T09:00:58;36.40;43.80
15048;DHT22;7621;52.350;13.308;2023-06-10T09:03:25;36.60;43.70
15048;DHT22;7621;52.350;13.308;2023-06-10T09:05:50;36.80;43.10
15048;DHT22;7621;52.350;13.308;2023-06-10T09:08:16;37.10;42.80
15048;DHT22;7621;52.350;13.308;2023-06-10T09:10:42;37.40;42.60
15048;DHT22;7621;52.350;13.308;2023-06-10T09:13:07;37.60;42.40
15048;DHT22;7621;52.350;13.308;2023-06-10T09:15:33;37.80;42.00
15048;DHT22;7621;52.350;13.308;2023-06-10T09:17:59;38.00;41.60
15048;DHT22;7621;52.350;13.308;2023-06-10T09:20:25;38.30;41.50
15048;DHT22;7621;52.350;13.308;2023-06-10T09:22:51;38.50;41.40
15048;DHT22;7621;52.350;13.308;2023-06-10T09:25:17;38.70;41.00
15048;DHT22;7621;52.350;13.308;2023-06-10T09:27:52;38.90;40.30
15048;DHT22;7621;52.350;13.308;2023-06-10T09:30:29;39.10;39.50
15048;DHT22;7621;52.350;13.308;2023-06-10T09:32:56;39.30;39.30
15048;DHT22;7621;52.350;13.308;2023-06-10T09:35:23;39.30;39.20
15048;DHT22;7621;52.350;13.308;2023-06-10T09:37:57;39.40;39.10
15048;DHT22;7621;52.350;13.308;2023-06-10T09:40:23;39.50;38.80
15048;DHT22;7621;52.350;13.308;2023-06-10T09:42:59;39.60;38.70
15048;DHT22;7621;52.350;13.308;2023-06-10T09:45:31;39.80;38.50
15048;DHT22;7621;52.350;13.308;2023-06-10T09:48:00;39.90;38.10
15048;DHT22;7621;52.350;13.308;2023-06-10T09:50:25;40.00;37.90
15048;DHT22;7621;52.350;13.308;2023-06-10T09:52:51;40.20;37.90
15048;DHT22;7621;52.350;13.308;2023-06-10T09:55:17;40.30;37.70
15048;DHT22;7621;52.350;13.308;2023-06-10T09:57:43;40.40;37.70
15048;DHT22;7621;52.350;13.308;2023-06-10T10:00:13;40.50;37.50
15048;DHT22;7621;52.350;13.308;2023-06-10T10:02:50;40.60;37.20
15048;DHT22;7621;52.350;13.308;2023-06-10T10:05:18;40.70;37.10
15048;DHT22;7621;52.350;13.308;2023-06-10T10:07:44;40.90;36.90
15048;DHT22;7621;52.350;13.308;2023-06-10T10:10:11;40.90;36.70
15048;DHT22;7621;52.350;13.308;2023-06-10T10:12:38;41.00;36.70
15048;DHT22;7621;52.350;13.308;2023-06-10T10:15:07;41.00;36.40
15048;DHT22;7621;52.350;13.308;2023-06-10T10:17:38;41.10;36.40
15048;DHT22;7621;52.350;13.308;2023-06-10T10:20:05;41.10;36.30
15048;DHT22;7621;52.350;13.308;2023-06-10T10:22:39;41.10;36.20
15048;DHT22;7621;52.350;13.308;2023-06-10T10:25:16;41.10;35.90
15048;DHT22;7621;52.350;13.308;2023-06-10T10:27:56;41.10;35.90
15048;DHT22;7621;52.350;13.308;2023-06-10T10:30:23;41.10;35.90
15048;DHT22;7621;52.350;13.308;2023-06-10T10:33:00;41.10;36.00
15048;DHT22;7621;52.350;13.308;2023-06-10T10:35:30;41.10;36.00
15048;DHT22;7621;52.350;13.308;2023-06-10T10:37:58;41.20;36.00
15048;DHT22;7621;52.350;13.308;2023-06-10T10:40:25;41.20;36.00
15048;DHT22;7621;52.350;13.308;2023-06-10T10:42:54;41.20;36.00
15048;DHT22;7621;52.350;13.308;2023-06-10T10:45:21;41.30;35.80
15048;DHT22;7621;52.350;13.308;2023-06-10T10:47:52;41.20;35.40
15048;DHT22;7621;52.350;13.308;2023-06-10T10:50:19;41.20;35.20
15048;DHT22;7621;52.350;13.308;2023-06-10T10:53:03;41.10;35.30
15048;DHT22;7621;52.350;13.308;2023-06-10T10:55:29;40.90;35.40
15048;DHT22;7621;52.350;13.308;2023-06-10T10:57:59;40.90;35.40
15048;DHT22;7621;52.350;13.308;2023-06-10T11:03:04;40.70;35.20
15048;DHT22;7621;52.350;13.308;2023-06-10T11:05:41;40.70;35.00
15048;DHT22;7621;52.350;13.308;2023-06-10T11:08:10;40.60;35.00
15048;DHT22;7621;52.350;13.308;2023-06-10T11:10:38;40.40;35.00
15048;DHT22;7621;52.350;13.308;2023-06-10T11:13:10;40.30;35.10
15048;DHT22;7621;52.350;13.308;2023-06-10T11:16:14;40.10;35.20
15048;DHT22;7621;52.350;13.308;2023-06-10T11:18:38;40.00;35.20
15048;DHT22;7621;52.350;13.308;2023-06-10T11:21:05;39.90;34.90
15048;DHT22;7621;52.350;13.308;2023-06-10T11:23:33;39.70;34.80
15048;DHT22;7621;52.350;13.308;2023-06-10T11:26:12;39.50;34.70
15048;DHT22;7621;52.350;13.308;2023-06-10T11:28:39;39.30;34.70
15048;DHT22;7621;52.350;13.308;2023-06-10T11:31:05;38.90;34.80
15048;DHT22;7621;52.350;13.308;2023-06-10T11:33:31;38.60;35.00
15048;DHT22;7621;52.350;13.308;2023-06-10T11:35:57;38.30;35.20
15048;DHT22;7621;52.350;13.308;2023-06-10T11:38:24;38.00;35.50
15048;DHT22;7621;52.350;13.308;2023-06-10T11:40:49;37.70;35.80
15048;DHT22;7621;52.350;13.308;2023-06-10T11:43:17;37.40;36.10
15048;DHT22;7621;52.350;13.308;2023-06-10T11:45:43;37.10;36.40
15048;DHT22;7621;52.350;13.308;2023-06-10T11:48:09;36.90;36.70
15048;DHT22;7621;52.350;13.308;2023-06-10T11:50:35;36.60;36.90
15048;DHT22;7621;52.350;13.308;2023-06-10T11:53:02;36.40;37.20
15048;DHT22;7621;52.350;13.308;2023-06-10T11:55:47;36.10;37.40
15048;DHT22;7621;52.350;13.308;2023-06-10T11:58:21;35.90;37.60
15048;DHT22;7621;52.350;13.308;2023-06-10T12:00:49;35.60;37.90
15048;DHT22;7621;52.350;13.308;2023-06-10T12:03:16;35.40;38.20
15048;DHT22;7621;52.350;13.308;2023-06-10T12:06:01;35.30;38.40
15048;DHT22;7621;52.350;13.308;2023-06-10T12:08:27;35.10;38.60
15048;DHT22;7621;52.350;13.308;2023-06-10T12:10:53;35.00;38.70
15048;DHT22;7621;52.350;13.308;2023-06-10T12:13:19;34.90;38.90
15048;DHT22;7621;52.350;13.308;2023-06-10T12:15:45;34.90;39.00
15048;DHT22;7621;52.350;13.308;2023-06-10T12:18:18;34.80;39.20
15048;DHT22;7621;52.350;13.308;2023-06-10T12:20:44;34.70;39.30
15048;DHT22;7621;52.350;13.308;2023-06-10T12:23:10;34.60;39.40
15048;DHT22;7621;52.350;13.308;2023-06-10T12:25:37;34.60;39.60
15048;DHT22;7621;52.350;13.308;2023-06-10T12:28:03;34.60;39.80
15048;DHT22;7621;52.350;13.308;2023-06-10T12:30:29;34.50;39.80
15048;DHT22;7621;52.350;13.308;2023-06-10T12:32:55;34.50;39.90
15048;DHT22;7621;52.350;13.308;2023-06-10T12:35:25;34.50;40.10
15048;DHT22;7621;52.350;13.308;2023-06-10T12:38:02;34.50;40.10
15048;DHT22;7621;52.350;13.308;2023-06-10T12:40:37;34.40;40.10
15048;DHT22;7621;52.350;13.308;2023-06-10T12:43:04;34.40;40.10
15048;DHT22;7621;52.350;13.308;2023-06-10T12:45:34;34.40;39.90
15048;DHT22;7621;52.350;13.308;2023-06-10T12:48:19;34.40;39.80
15048;DHT22;7621;52.350;13.308;2023-06-10T12:50:50;34.40;39.80
15048;DHT22;7621;52.350;13.308;2023-06-10T12:53:16;34.30;39.70
15048;DHT22;7621;52.350;13.308;2023-06-10T12:55:42;34.30;39.70
15048;DHT22;7621;52.350;13.308;2023-06-10T12:58:10;34.30;39.90
15048;DHT22;7621;52.350;13.308;2023-06-10T13:00:35;34.30;40.20
15048;DHT22;7621;52.350;13.308;2023-06-10T13:03:02;34.30;40.30
15048;DHT22;7621;52.350;13.308;2023-06-10T13:05:28;34.30;40.50
15048;DHT22;7621;52.350;13.308;2023-06-10T13:07:55;34.30;40.50
15048;DHT22;7621;52.350;13.308;2023-06-10T13:10:21;34.20;40.60
15048;DHT22;7621;52.350;13.308;2023-06-10T13:12:47;34.20;40.80
15048;DHT22;7621;52.350;13.308;2023-06-10T13:15:13;34.20;41.00
15048;DHT22;7621;52.350;13.308;2023-06-10T13:17:40;34.20;41.30
15048;DHT22;7621;52.350;13.308;2023-06-10T13:20:06;34.20;41.30
15048;DHT22;7621;52.350;13.308;2023-06-10T13:22:32;34.20;41.10
15048;DHT22;7621;52.350;13.308;2023-06-10T13:25:00;34.20;41.00
15048;DHT22;7621;52.350;13.308;2023-06-10T13:27:26;34.20;41.00
15048;DHT22;7621;52.350;13.308;2023-06-10T13:29:52;34.20;40.90
15048;DHT22;7621;52.350;13.308;2023-06-10T13:32:18;34.10;40.80
15048;DHT22;7621;52.350;13.308;2023-06-10T13:34:43;34.10;40.80
15048;DHT22;7621;52.350;13.308;2023-06-10T13:37:09;34.10;40.70
15048;DHT22;7621;52.350;13.308;2023-06-10T13:39:35;34.10;40.70
15048;DHT22;7621;52.350;13.308;2023-06-10T13:42:00;34.10;40.80
15048;DHT22;7621;52.350;13.308;2023-06-10T13:44:26;34.10;40.80
15048;DHT22;7621;52.350;13.308;2023-06-10T13:46:51;34.10;40.50
15048;DHT22;7621;52.350;13.308;2023-06-10T13:49:17;34.00;40.10
15048;DHT22;7621;52.350;13.308;2023-06-10T13:51:42;34.00;39.80
15048;DHT22;7621;52.350;13.308;2023-06-10T13:54:08;34.00;39.70
15048;DHT22;7621;52.350;13.308;2023-06-10T13:56:33;34.00;39.60
15048;DHT22;7621;52.350;13.308;2023-06-10T13:59:03;34.00;39.40
15048;DHT22;7621;52.350;13.308;2023-06-10T14:01:29;33.90;39.10
15048;DHT22;7621;52.350;13.308;2023-06-10T14:03:54;33.90;38.90
15048;DHT22;7621;52.350;13.308;2023-06-10T14:06:20;33.80;38.60
15048;DHT22;7621;52.350;13.308;2023-06-10T14:08:45;33.90;38.40
15048;DHT22;7621;52.350;13.308;2023-06-10T14:11:11;33.80;38.20
15048;DHT22;7621;52.350;13.308;2023-06-10T14:13:36;33.70;38.00
15048;DHT22;7621;52.350;13.308;2023-06-10T14:16:04;33.80;38.00
15048;DHT22;7621;52.350;13.308;2023-06-10T14:18:30;33.70;38.00
15048;DHT22;7621;52.350;13.308;2023-06-10T14:20:57;33.70;38.00
15048;DHT22;7621;52.350;13.308;2023-06-10T14:23:22;33.70;38.10
15048;DHT22;7621;52.350;13.308;2023-06-10T14:25:49;33.70;38.10
15048;DHT22;7621;52.350;13.308;2023-06-10T14:28:15;33.70;38.20
15048;DHT22;7621;52.350;13.308;2023-06-10T14:30:40;33.70;38.20
15048;DHT22;7621;52.350;13.308;2023-06-10T14:33:06;33.70;38.00
15048;DHT22;7621;52.350;13.308;2023-06-10T14:35:31;33.60;37.90
15048;DHT22;7621;52.350;13.308;2023-06-10T14:37:57;33.60;38.00
15048;DHT22;7621;52.350;13.308;2023-06-10T14:40:22;33.60;38.20
15048;DHT22;7621;52.350;13.308;2023-06-10T14:42:49;33.50;38.50
15048;DHT22;7621;52.350;13.308;2023-06-10T14:45:15;33.50;38.80
15048;DHT22;7621;52.350;13.308;2023-06-10T14:47:40;33.50;38.90
15048;DHT22;7621;52.350;13.308;2023-06-10T14:50:06;33.50;38.90
15048;DHT22;7621;52.350;13.308;2023-06-10T14:52:32;33.40;38.90
15048;DHT22;7621;52.350;13.308;2023-06-10T14:54:57;33.40;38.90
15048;DHT22;7621;52.350;13.308;2023-06-10T14:57:23;33.30;38.90
15048;DHT22;7621;52.350;13.308;2023-06-10T14:59:49;33.30;39.00
15048;DHT22;7621;52.350;13.308;2023-06-10T15:02:14;33.20;39.20
15048;DHT22;7621;52.350;13.308;2023-06-10T15:04:40;33.20;39.50
15048;DHT22;7621;52.350;13.308;2023-06-10T15:07:05;33.10;39.80
15048;DHT22;7621;52.350;13.308;2023-06-10T15:09:31;33.10;40.10
15048;DHT22;7621;52.350;13.308;2023-06-10T15:11:57;33.10;40.30
15048;DHT22;7621;52.350;13.308;2023-06-10T15:14:24;33.10;40.40
15048;DHT22;7621;52.350;13.308;2023-06-10T15:16:51;33.00;40.60
15048;DHT22;7621;52.350;13.308;2023-06-10T15:19:16;33.00;40.80
15048;DHT22;7621;52.350;13.308;2023-06-10T15:21:42;33.00;40.90
15048;DHT22;7621;52.350;13.308;2023-06-10T15:24:07;33.00;40.80
15048;DHT22;7621;52.350;13.308;2023-06-10T15:26:33;33.00;40.70
15048;DHT22;7621;52.350;13.308;2023-06-10T15:28:59;33.00;40.80
15048;DHT22;7621;52.350;13.308;2023-06-10T15:31:29;33.00;40.70
15048;DHT22;7621;52.350;13.308;2023-06-10T15:33:55;33.00;40.50
15048;DHT22;7621;52.350;13.308;2023-06-10T15:36:21;33.00;40.50
15048;DHT22;7621;52.350;13.308;2023-06-10T15:38:46;33.00;40.40
15048;DHT22;7621;52.350;13.308;2023-06-10T15:41:12;33.00;40.90
15048;DHT22;7621;52.350;13.308;2023-06-10T15:43:38;33.00;40.20
15048;DHT22;7621;52.350;13.308;2023-06-10T15:46:03;33.00;40.00
15048;DHT22;7621;52.350;13.308;2023-06-10T15:48:29;33.00;39.60
15048;DHT22;7621;52.350;13.308;2023-06-10T15:50:55;33.00;39.40
15048;DHT22;7621;52.350;13.308;2023-06-10T15:53:20;33.00;39.30
15048;DHT22;7621;52.350;13.308;2023-06-10T15:55:46;32.90;39.30
15048;DHT22;7621;52.350;13.308;2023-06-10T15:58:12;33.00;39.30
15048;DHT22;7621;52.350;13.308;2023-06-10T16:00:37;32.90;39.10
15048;DHT22;7621;52.350;13.308;2023-06-10T16:03:03;32.90;39.00
15048;DHT22;7621;52.350;13.308;2023-06-10T16:05:28;33.00;38.90
15048;DHT22;7621;52.350;13.308;2023-06-10T16:07:54;32.90;38.80
15048;DHT22;7621;52.350;13.308;2023-06-10T16:10:19;32.90;38.80
15048;DHT22;7621;52.350;13.308;2023-06-10T16:12:45;32.90;38.40
15048;DHT22;7621;52.350;13.308;2023-06-10T16:15:10;32.90;38.20
15048;DHT22;7621;52.350;13.308;2023-06-10T16:17:36;32.90;38.10
15048;DHT22;7621;52.350;13.308;2023-06-10T16:20:03;32.90;37.90
15048;DHT22;7621;52.350;13.308;2023-06-10T16:22:30;32.80;37.80
15048;DHT22;7621;52.350;13.308;2023-06-10T16:24:56;32.80;37.50
15048;DHT22;7621;52.350;13.308;2023-06-10T16:27:21;32.70;37.30
15048;DHT22;7621;52.350;13.308;2023-06-10T16:29:49;32.70;37.20
15048;DHT22;7621;52.350;13.308;2023-06-10T16:32:15;32.70;37.30
15048;DHT22;7621;52.350;13.308;2023-06-10T16:34:40;32.60;37.20
15048;DHT22;7621;52.350;13.308;2023-06-10T16:37:06;32.60;37.00
15048;DHT22;7621;52.350;13.308;2023-06-10T16:39:31;32.60;36.90
15048;DHT22;7621;52.350;13.308;2023-06-10T16:41:57;32.50;36.80
15048;DHT22;7621;52.350;13.308;2023-06-10T16:44:23;32.50;36.80
15048;DHT22;7621;52.350;13.308;2023-06-10T16:46:48;32.50;36.80
15048;DHT22;7621;52.350;13.308;2023-06-10T16:49:14;32.50;36.70
15048;DHT22;7621;52.350;13.308;2023-06-10T16:51:39;32.50;36.70
15048;DHT22;7621;52.350;13.308;2023-06-10T16:54:05;32.40;36.60
15048;DHT22;7621;52.350;13.308;2023-06-10T16:56:30;32.40;36.60
15048;DHT22;7621;52.350;13.308;2023-06-10T16:58:56;32.40;36.60
15048;DHT22;7621;52.350;13.308;2023-06-10T17:01:21;32.40;36.60
15048;DHT22;7621;52.350;13.308;2023-06-10T17:03:47;32.40;36.60
15048;DHT22;7621;52.350;13.308;2023-06-10T17:06:12;32.40;36.60
15048;DHT22;7621;52.350;13.308;2023-06-10T17:08:38;32.30;36.60
15048;DHT22;7621;52.350;13.308;2023-06-10T17:11:03;32.30;36.70
15048;DHT22;7621;52.350;13.308;2023-06-10T17:13:29;32.30;36.70
15048;DHT22;7621;52.350;13.308;2023-06-10T17:15:55;32.30;36.70
15048;DHT22;7621;52.350;13.308;2023-06-10T17:18:21;32.30;36.60
15048;DHT22;7621;52.350;13.308;2023-06-10T17:20:46;32.30;36.50
15048;DHT22;7621;52.350;13.308;2023-06-10T17:23:12;32.30;36.50
15048;DHT22;7621;52.350;13.308;2023-06-10T17:25:38;32.30;36.50
15048;DHT22;7621;52.350;13.308;2023-06-10T17:28:04;32.20;36.30
15048;DHT22;7621;52.350;13.308;2023-06-10T17:30:29;32.20;36.20
15048;DHT22;7621;52.350;13.308;2023-06-10T17:32:55;32.20;36.10
15048;DHT22;7621;52.350;13.308;2023-06-10T17:35:20;32.20;35.90
15048;DHT22;7621;52.350;13.308;2023-06-10T17:37:46;32.20;35.70
15048;DHT22;7621;52.350;13.308;2023-06-10T17:40:12;32.20;35.60
15048;DHT22;7621;52.350;13.308;2023-06-10T17:42:38;32.10;35.50
15048;DHT22;7621;52.350;13.308;2023-06-10T17:45:04;32.10;35.40
15048;DHT22;7621;52.350;13.308;2023-06-10T17:47:30;32.10;35.30
15048;DHT22;7621;52.350;13.308;2023-06-10T17:49:55;32.00;35.30
15048;DHT22;7621;52.350;13.308;2023-06-10T17:52:21;32.00;35.40
15048;DHT22;7621;52.350;13.308;2023-06-10T17:54:46;32.00;35.40
15048;DHT22;7621;52.350;13.308;2023-06-10T17:57:12;32.00;35.50
15048;DHT22;7621;52.350;13.308;2023-06-10T17:59:37;32.00;35.50
15048;DHT22;7621;52.350;13.308;2023-06-10T18:02:03;31.90;35.40
15048;DHT22;7621;52.350;13.308;2023-06-10T18:04:29;31.90;35.40
15048;DHT22;7621;52.350;13.308;2023-06-10T18:06:54;31.90;35.40
15048;DHT22;7621;52.350;13.308;2023-06-10T18:09:21;31.80;35.30
15048;DHT22;7621;52.350;13.308;2023-06-10T18:11:47;31.80;35.40
15048;DHT22;7621;52.350;13.308;2023-06-10T18:14:14;31.80;35.40
15048;DHT22;7621;52.350;13.308;2023-06-10T18:16:40;31.80;35.40
15048;DHT22;7621;52.350;13.308;2023-06-10T18:19:05;31.70;35.50
15048;DHT22;7621;52.350;13.308;2023-06-10T18:21:31;31.70;35.50
15048;DHT22;7621;52.350;13.308;2023-06-10T18:23:56;31.60;35.50
15048;DHT22;7621;52.350;13.308;2023-06-10T18:26:22;31.70;35.70
15048;DHT22;7621;52.350;13.308;2023-06-10T18:28:47;31.60;35.60
15048;DHT22;7621;52.350;13.308;2023-06-10T18:31:13;31.60;35.70
15048;DHT22;7621;52.350;13.308;2023-06-10T18:33:39;31.50;35.70
15048;DHT22;7621;52.350;13.308;2023-06-10T18:36:04;31.50;35.80
15048;DHT22;7621;52.350;13.308;2023-06-10T18:38:30;31.50;35.80
15048;DHT22;7621;52.350;13.308;2023-06-10T18:40:56;31.40;35.90
15048;DHT22;7621;52.350;13.308;2023-06-10T18:43:21;31.40;36.00
15048;DHT22;7621;52.350;13.308;2023-06-10T18:45:47;31.40;36.10
15048;DHT22;7621;52.350;13.308;2023-06-10T18:48:12;31.30;36.10
15048;DHT22;7621;52.350;13.308;2023-06-10T18:50:38;31.30;36.10
15048;DHT22;7621;52.350;13.308;2023-06-10T18:53:04;31.30;36.20
15048;DHT22;7621;52.350;13.308;2023-06-10T18:55:30;31.20;36.30
15048;DHT22;7621;52.350;13.308;2023-06-10T18:57:57;31.20;36.30
15048;DHT22;7621;52.350;13.308;2023-06-10T19:00:23;31.20;36.40
15048;DHT22;7621;52.350;13.308;2023-06-10T19:02:48;31.20;36.60
15048;DHT22;7621;52.350;13.308;2023-06-10T19:05:14;31.20;36.60
15048;DHT22;7621;52.350;13.308;2023-06-10T19:07:40;31.10;36.60
15048;DHT22;7621;52.350;13.308;2023-06-10T19:10:06;31.10;36.70
15048;DHT22;7621;52.350;13.308;2023-06-10T19:12:31;31.00;36.60
15048;DHT22;7621;52.350;13.308;2023-06-10T19:14:57;31.00;36.70
15048;DHT22;7621;52.350;13.308;2023-06-10T19:17:23;31.00;36.90
15048;DHT22;7621;52.350;13.308;2023-06-10T19:19:49;30.90;36.90
15048;DHT22;7621;52.350;13.308;2023-06-10T19:22:14;30.90;37.00
15048;DHT22;7621;52.350;13.308;2023-06-10T19:24:40;30.90;37.10
15048;DHT22;7621;52.350;13.308;2023-06-10T19:27:07;30.80;37.20
15048;DHT22;7621;52.350;13.308;2023-06-10T19:29:33;30.70;37.30
15048;DHT22;7621;52.350;13.308;2023-06-10T19:31:59;30.70;37.40
15048;DHT22;7621;52.350;13.308;2023-06-10T19:34:26;30.70;37.60
15048;DHT22;7621;52.350;13.308;2023-06-10T19:36:51;30.60;37.60
15048;DHT22;7621;52.350;13.308;2023-06-10T19:39:17;30.60;37.70
15048;DHT22;7621;52.350;13.308;2023-06-10T19:41:42;30.60;37.80
15048;DHT22;7621;52.350;13.308;2023-06-10T19:44:08;30.50;37.90
15048;DHT22;7621;52.350;13.308;2023-06-10T19:46:33;30.40;38.20
15048;DHT22;7621;52.350;13.308;2023-06-10T19:49:03;30.40;38.30
15048;DHT22;7621;52.350;13.308;2023-06-10T19:51:28;30.40;38.50
15048;DHT22;7621;52.350;13.308;2023-06-10T19:53:54;30.30;38.60
15048;DHT22;7621;52.350;13.308;2023-06-10T19:56:20;30.30;38.80
15048;DHT22;7621;52.350;13.308;2023-06-10T19:58:51;30.20;38.80
15048;DHT22;7621;52.350;13.308;2023-06-10T20:01:16;30.20;39.00
15048;DHT22;7621;52.350;13.308;2023-06-10T20:03:42;30.10;39.10
15048;DHT22;7621;52.350;13.308;2023-06-10T20:06:08;30.10;39.20
15048;DHT22;7621;52.350;13.308;2023-06-10T20:08:34;30.00;39.30
15048;DHT22;7621;52.350;13.308;2023-06-10T20:11:00;29.90;39.40
15048;DHT22;7621;52.350;13.308;2023-06-10T20:13:26;29.80;39.60
15048;DHT22;7621;52.350;13.308;2023-06-10T20:15:51;29.80;39.90
15048;DHT22;7621;52.350;13.308;2023-06-10T20:18:17;29.70;40.10
15048;DHT22;7621;52.350;13.308;2023-06-10T20:20:42;29.70;40.40
15048;DHT22;7621;52.350;13.308;2023-06-10T20:23:08;29.70;40.60
15048;DHT22;7621;52.350;13.308;2023-06-10T20:25:34;29.60;40.70
15048;DHT22;7621;52.350;13.308;2023-06-10T20:28:01;29.60;40.90
15048;DHT22;7621;52.350;13.308;2023-06-10T20:30:26;29.50;41.60
15048;DHT22;7621;52.350;13.308;2023-06-10T20:32:52;29.50;41.10
15048;DHT22;7621;52.350;13.308;2023-06-10T20:35:18;29.40;41.20
15048;DHT22;7621;52.350;13.308;2023-06-10T20:37:45;29.40;41.50
15048;DHT22;7621;52.350;13.308;2023-06-10T20:40:11;29.40;41.70
15048;DHT22;7621;52.350;13.308;2023-06-10T20:42:39;29.30;42.10
15048;DHT22;7621;52.350;13.308;2023-06-10T20:45:05;29.30;42.50
15048;DHT22;7621;52.350;13.308;2023-06-10T20:47:31;29.20;42.70
15048;DHT22;7621;52.350;13.308;2023-06-10T20:49:58;29.20;42.90
15048;DHT22;7621;52.350;13.308;2023-06-10T20:52:23;29.20;43.10
15048;DHT22;7621;52.350;13.308;2023-06-10T20:54:49;29.10;43.40
15048;DHT22;7621;52.350;13.308;2023-06-10T20:57:14;29.10;43.50
15048;DHT22;7621;52.350;13.308;2023-06-10T20:59:40;29.10;43.90
15048;DHT22;7621;52.350;13.308;2023-06-10T21:02:06;29.00;44.30
15048;DHT22;7621;52.350;13.308;2023-06-10T21:04:32;29.00;44.40
15048;DHT22;7621;52.350;13.308;2023-06-10T21:06:57;29.00;44.60
15048;DHT22;7621;52.350;13.308;2023-06-10T21:09:23;29.00;44.80
15048;DHT22;7621;52.350;13.308;2023-06-10T21:11:48;28.90;44.90
15048;DHT22;7621;52.350;13.308;2023-06-10T21:14:14;28.90;45.30
15048;DHT22;7621;52.350;13.308;2023-06-10T21:16:40;28.80;45.50
15048;DHT22;7621;52.350;13.308;2023-06-10T21:19:05;28.90;45.80
15048;DHT22;7621;52.350;13.308;2023-06-10T21:21:31;28.80;46.00
15048;DHT22;7621;52.350;13.308;2023-06-10T21:23:56;28.70;46.10
15048;DHT22;7621;52.350;13.308;2023-06-10T21:26:22;28.70;46.40
15048;DHT22;7621;52.350;13.308;2023-06-10T21:28:47;28.60;46.50
15048;DHT22;7621;52.350;13.308;2023-06-10T21:31:13;28.60;46.60
15048;DHT22;7621;52.350;13.308;2023-06-10T21:33:39;28.60;46.60
15048;DHT22;7621;52.350;13.308;2023-06-10T21:36:04;28.50;46.60
15048;DHT22;7621;52.350;13.308;2023-06-10T21:38:30;28.40;46.50
15048;DHT22;7621;52.350;13.308;2023-06-10T21:40:56;28.40;46.50
15048;DHT22;7621;52.350;13.308;2023-06-10T21:43:21;28.30;46.40
15048;DHT22;7621;52.350;13.308;2023-06-10T21:45:47;28.30;46.30
15048;DHT22;7621;52.350;13.308;2023-06-10T21:48:12;28.30;46.20
15048;DHT22;7621;52.350;13.308;2023-06-10T21:50:38;28.20;45.90
15048;DHT22;7621;52.350;13.308;2023-06-10T21:53:03;28.20;45.60
15048;DHT22;7621;52.350;13.308;2023-06-10T21:55:29;28.10;45.20
15048;DHT22;7621;52.350;13.308;2023-06-10T21:57:54;28.10;45.20
15048;DHT22;7621;52.350;13.308;2023-06-10T22:00:20;28.00;45.00
15048;DHT22;7621;52.350;13.308;2023-06-10T22:02:46;28.00;44.80
15048;DHT22;7621;52.350;13.308;2023-06-10T22:05:11;27.90;44.50
15048;DHT22;7621;52.350;13.308;2023-06-10T22:07:37;27.90;44.30